Time;durP1;ratioP1;P1;durP2;ratioP2;P2;SDS_P1;SDS_P2;PMS_P1;PMS_P2;Temp;Humidity;BMP_temperature;BMP_pressure;BME280_temperature;BME280_humidity;BME280_pressure;Samples;Min_cycle;Max_cycle;Signal;HPM_P1;HPM_P2
2024/03/10 00:00:16;;;;;;;25.87;14.80;;;;;;;;;;5009251;28;20529;-57
2024/03/10 00:02:44;;;;;;;26.17;14.80;;;;;;;;;;5007065;28;20100;-58
2024/03/10 00:05:12;;;;;;;25.77;15.05;;;;;;;;;;5006577;28;20030;-57
2024/03/10 00:07:37;;;;;;;25.33;14.70;;;;;;;;;;5008989;28;20034;-57
2024/03/10 00:10:02;;;;;;;25.08;14.68;;;;;;;;;;5009046;28;20104;-59
2024/03/10 00:12:28;;;;;;;25.20;14.63;;;;;;;;;;5012590;28;20006;-57
2024/03/10 00:14:53;;;;;;;26.27;15.90;;;;;;;;;;5012996;28;20456;-56
2024/03/10 00:17:18;;;;;;;25.70;14.98;;;;;;;;;;5006159;28;20037;-58
2024/03/10 00:19:43;;;;;;;25.48;14.75;;;;;;;;;;5009306;28;20073;-59
2024/03/10 00:22:09;;;;;;;25.60;14.82;;;;;;;;;;5009659;28;20299;-58
2024/03/10 00:24:36;;;;;;;25.73;14.57;;;;;;;;;;5008101;28;20022;-58
2024/03/10 00:27:02;;;;;;;27.17;15.68;;;;;;;;;;5008878;28;20026;-58
2024/03/10 00:29:29;;;;;;;25.23;15.50;;;;;;;;;;5008571;28;20125;-57
2024/03/10 00:31:54;;;;;;;24.85;14.77;;;;;;;;;;5011429;28;20061;-58
2024/03/10 00:34:19;;;;;;;29.73;16.23;;;;;;;;;;5008287;28;20060;-59
2024/03/10 00:36:45;;;;;;;29.43;15.20;;;;;;;;;;5009230;28;20751;-57
2024/03/10 00:39:10;;;;;;;25.58;14.98;;;;;;;;;;5008676;28;20025;-58
2024/03/10 00:41:35;;;;;;;25.33;15.33;;;;;;;;;;5007085;28;20022;-57
2024/03/10 00:44:02;;;;;;;26.23;15.50;;;;;;;;;;5008144;28;20112;-58
2024/03/10 00:46:28;;;;;;;27.70;16.35;;;;;;;;;;5008561;28;20026;-59
2024/03/10 00:48:53;;;;;;;27.65;15.02;;;;;;;;;;5008531;28;20541;-57
2024/03/10 00:51:19;;;;;;;26.87;15.37;;;;;;;;;;5011506;28;20052;-58
2024/03/10 00:53:44;;;;;;;27.45;15.88;;;;;;;;;;5008106;28;20022;-58
2024/03/10 00:56:10;;;;;;;26.92;16.23;;;;;;;;;;5007829;28;20072;-57
2024/03/10 00:58:35;;;;;;;25.53;15.47;;;;;;;;;;5007298;28;20022;-57
2024/03/10 01:01:01;;;;;;;26.25;15.07;;;;;;;;;;5010668;28;20033;-57
2024/03/10 01:03:26;;;;;;;25.95;15.80;;;;;;;;;;5000119;28;20105;-57
2024/03/10 01:05:52;;;;;;;27.57;15.80;;;;;;;;;;5008250;28;20128;-57
2024/03/10 01:08:18;;;;;;;22.90;13.55;;;;;;;;;;5008267;28;20037;-59
2024/03/10 01:10:44;;;;;;;27.23;16.00;;;;;;;;;;5010995;28;20044;-57
2024/03/10 01:13:09;;;;;;;27.35;16.40;;;;;;;;;;5008478;28;20034;-57
2024/03/10 01:15:34;;;;;;;31.15;16.40;;;;;;;;;;5003852;28;20029;-57
2024/03/10 01:17:59;;;;;;;26.90;15.13;;;;;;;;;;5008545;28;20088;-58
2024/03/10 01:20:26;;;;;;;26.30;15.43;;;;;;;;;;5007760;28;20085;-57
2024/03/10 01:22:51;;;;;;;29.23;15.43;;;;;;;;;;5003312;28;20030;-57
2024/03/10 01:25:16;;;;;;;26.80;15.43;;;;;;;;;;5006132;28;20080;-58
2024/03/10 01:27:43;;;;;;;29.23;16.10;;;;;;;;;;5007090;28;20034;-59
2024/03/10 01:30:09;;;;;;;;;;;;;;;;;;5007280;28;20033;-57
2024/03/10 01:32:36;;;;;;;28.58;14.68;;;;;;;;;;5010430;28;20308;-57
2024/03/10 01:35:01;;;;;;;28.55;15.52;;;;;;;;;;5007994;28;20030;-57
2024/03/10 01:37:26;;;;;;;28.83;15.63;;;;;;;;;;5008035;28;20072;-58
2024/03/10 01:39:51;;;;;;;25.70;14.82;;;;;;;;;;5007895;28;20470;-58
2024/03/10 01:42:17;;;;;;;27.10;15.03;;;;;;;;;;5008415;28;20487;-57
2024/03/10 01:44:43;;;;;;;26.40;15.32;;;;;;;;;;4995889;28;20088;-58
2024/03/10 01:47:08;;;;;;;26.83;15.52;;;;;;;;;;5007734;28;20518;-57
2024/03/10 01:49:34;;;;;;;25.95;13.77;;;;;;;;;;4999121;28;20026;-58
2024/03/10 01:51:59;;;;;;;26.60;15.15;;;;;;;;;;5007229;28;20441;-58
2024/03/10 01:54:25;;;;;;;28.77;15.50;;;;;;;;;;5007423;28;20105;-58
2024/03/10 01:56:51;;;;;;;26.90;15.52;;;;;;;;;;5007519;28;20018;-58
2024/03/10 01:59:17;;;;;;;25.48;14.77;;;;;;;;;;5006552;28;20037;-57
2024/03/10 02:01:46;;;;;;;25.67;15.07;;;;;;;;;;5007535;28;20030;-58
2024/03/10 02:04:11;;;;;;;25.60;14.68;;;;;;;;;;5001886;28;20029;-59
2024/03/10 02:06:36;;;;;;;23.40;13.93;;;;;;;;;;4995136;28;20085;-59
2024/03/10 02:09:03;;;;;;;25.50;14.60;;;;;;;;;;4990682;28;20014;-57
2024/03/10 02:11:28;;;;;;;28.92;15.30;;;;;;;;;;5011481;28;20580;-59
2024/03/10 02:13:53;;;;;;;24.50;14.87;;;;;;;;;;5013637;28;20032;-58
2024/03/10 02:16:18;;;;;;;27.17;15.03;;;;;;;;;;5007153;28;20383;-57
2024/03/10 02:18:44;;;;;;;26.10;14.47;;;;;;;;;;5011331;28;20034;-57
2024/03/10 02:21:11;;;;;;;25.40;14.75;;;;;;;;;;5014562;28;20061;-58
2024/03/10 02:23:40;;;;;;;25.52;14.52;;;;;;;;;;5018845;28;20010;-58
2024/03/10 02:26:05;;;;;;;23.08;13.45;;;;;;;;;;5013780;28;20164;-59
2024/03/10 02:28:35;;;;;;;24.35;13.50;;;;;;;;;;5011489;28;20116;-58
2024/03/10 02:47:12;;;;;;;23.67;14.07;;;;;;;;;;5011426;28;20025;-58
2024/03/10 02:47:31;;;;;;;25.48;13.35;;;;;;;;;;5004743;28;20451;-58
2024/03/10 02:49:57;;;;;;;24.10;14.25;;;;;;;;;;5010886;28;20033;-58
2024/03/10 02:52:22;;;;;;;24.93;13.50;;;;;;;;;;5012288;28;20033;-58
2024/03/10 02:54:47;;;;;;;24.60;14.40;;;;;;;;;;5015025;28;20087;-59
2024/03/10 02:57:13;;;;;;;26.03;14.67;;;;;;;;;;5018702;28;20555;-57
2024/03/10 02:59:38;;;;;;;24.20;14.70;;;;;;;;;;5013569;28;20445;-58
2024/03/10 03:02:03;;;;;;;24.23;13.20;;;;;;;;;;5017656;28;20018;-56
2024/03/10 03:04:28;;;;;;;26.50;14.33;;;;;;;;;;5013564;28;20030;-59
2024/03/10 03:06:54;;;;;;;24.67;14.37;;;;;;;;;;5019799;28;20033;-58
2024/03/10 03:09:20;;;;;;;24.35;13.35;;;;;;;;;;5021695;28;20030;-58
2024/03/10 03:11:46;;;;;;;23.92;13.23;;;;;;;;;;5024666;28;20022;-58
2024/03/10 03:14:13;;;;;;;23.02;13.80;;;;;;;;;;5027689;28;20033;-58
2024/03/10 03:16:38;;;;;;;;;;;;;;;;;;5023431;28;20450;-58
2024/03/10 03:19:03;;;;;;;23.10;12.90;;;;;;;;;;5015957;28;19909;-58
2024/03/10 03:21:28;;;;;;;21.93;12.63;;;;;;;;;;5011314;28;20030;-57
2024/03/10 03:23:53;;;;;;;23.48;13.10;;;;;;;;;;5018026;28;20703;-57
2024/03/10 03:26:19;;;;;;;23.40;13.83;;;;;;;;;;5019654;28;20045;-58
2024/03/10 03:28:44;;;;;;;21.35;12.65;;;;;;;;;;5021054;28;20034;-58
2024/03/10 03:31:09;;;;;;;21.67;12.87;;;;;;;;;;5016765;28;20548;-57
2024/03/10 03:33:34;;;;;;;22.27;13.07;;;;;;;;;;5002569;28;20997;-59
2024/03/10 03:36:01;;;;;;;22.05;12.75;;;;;;;;;;5009524;28;20029;-59
2024/03/10 03:38:26;;;;;;;22.23;13.50;;;;;;;;;;5009977;28;20180;-57
2024/03/10 03:40:51;;;;;;;22.08;12.90;;;;;;;;;;5009166;28;20858;-58
2024/03/10 03:43:16;;;;;;;24.05;13.27;;;;;;;;;;5008986;28;20029;-58
2024/03/10 03:45:42;;;;;;;22.98;13.52;;;;;;;;;;5004112;28;20029;-58
2024/03/10 03:48:07;;;;;;;22.17;13.43;;;;;;;;;;5020788;28;20124;-57
2024/03/10 03:50:32;;;;;;;24.30;14.27;;;;;;;;;;5009173;28;20440;-58
2024/03/10 03:52:57;;;;;;;22.67;12.80;;;;;;;;;;5011420;28;20163;-59
2024/03/10 03:55:22;;;;;;;24.47;13.30;;;;;;;;;;5006059;28;20026;-58
2024/03/10 03:57:48;;;;;;;23.25;12.73;;;;;;;;;;4997034;28;20889;-57
2024/03/10 04:00:13;;;;;;;24.27;13.93;;;;;;;;;;5008765;28;20036;-57
2024/03/10 04:02:38;;;;;;;24.33;13.65;;;;;;;;;;5011509;28;20025;-57
2024/03/10 04:05:07;;;;;;;24.47;14.50;;;;;;;;;;5010544;28;20029;-58
2024/03/10 04:07:32;;;;;;;24.27;12.85;;;;;;;;;;5002549;28;20037;-71
2024/03/10 04:09:57;;;;;;;24.93;13.97;;;;;;;;;;5008859;28;20014;-59
2024/03/10 04:12:22;;;;;;;23.73;13.47;;;;;;;;;;5008329;28;20096;-59
2024/03/10 04:14:47;;;;;;;25.52;14.55;;;;;;;;;;5014192;28;20022;-58
2024/03/10 04:17:13;;;;;;;25.73;14.52;;;;;;;;;;5009004;28;20048;-57
2024/03/10 04:19:38;;;;;;;25.40;14.20;;;;;;;;;;5008910;28;20048;-58
2024/03/10 04:22:03;;;;;;;24.80;14.35;;;;;;;;;;5008884;28;20018;-59
2024/03/10 04:24:28;;;;;;;24.27;13.17;;;;;;;;;;5014240;28;20076;-58
2024/03/10 04:26:53;;;;;;;25.57;14.50;;;;;;;;;;5020584;28;20034;-57
2024/03/10 04:29:19;;;;;;;25.42;13.45;;;;;;;;;;5009443;28;20045;-57
2024/03/10 04:31:44;;;;;;;25.35;14.52;;;;;;;;;;5008011;28;20550;-58
2024/03/10 04:34:12;;;;;;;24.53;14.43;;;;;;;;;;5002244;28;20022;-57
2024/03/10 04:36:39;;;;;;;24.92;14.65;;;;;;;;;;4996042;28;20070;-58
2024/03/10 04:39:05;;;;;;;23.92;13.32;;;;;;;;;;5002511;28;20033;-58
2024/03/10 04:41:30;;;;;;;23.88;14.40;;;;;;;;;;5006915;28;20445;-58
2024/03/10 04:43:55;;;;;;;25.30;13.93;;;;;;;;;;5013154;28;20030;-58
2024/03/10 04:46:20;;;;;;;28.50;15.87;;;;;;;;;;5008104;28;20049;-58
2024/03/10 04:48:46;;;;;;;26.88;14.95;;;;;;;;;;5007668;28;20088;-57
2024/03/10 04:51:13;;;;;;;25.55;14.55;;;;;;;;;;5007694;28;20037;-58
2024/03/10 04:53:38;;;;;;;26.77;14.95;;;;;;;;;;5014204;28;20021;-59
2024/03/10 04:56:03;;;;;;;26.03;13.40;;;;;;;;;;5007836;28;20413;-57
2024/03/10 04:58:28;;;;;;;24.65;13.88;;;;;;;;;;5008933;28;20152;-57
2024/03/10 05:00:53;;;;;;;28.40;15.02;;;;;;;;;;5009649;28;20038;-57
2024/03/10 05:03:20;;;;;;;24.50;13.88;;;;;;;;;;5007646;28;20430;-60
2024/03/10 05:05:45;;;;;;;26.50;14.27;;;;;;;;;;5002143;28;20042;-58
2024/03/10 05:08:10;;;;;;;25.57;14.10;;;;;;;;;;4992803;28;20037;-58
2024/03/10 05:10:35;;;;;;;24.57;14.57;;;;;;;;;;5007877;28;20024;-58
2024/03/10 05:13:01;;;;;;;24.80;14.03;;;;;;;;;;5008804;28;20148;-58
2024/03/10 05:15:26;;;;;;;24.37;14.33;;;;;;;;;;5000694;28;20026;-57
2024/03/10 05:17:52;;;;;;;26.83;14.10;;;;;;;;;;5009323;28;20036;-57
2024/03/10 05:20:18;;;;;;;24.67;14.20;;;;;;;;;;5007304;28;20453;-58
2024/03/10 05:22:44;;;;;;;27.40;14.35;;;;;;;;;;5006804;28;20650;-58
2024/03/10 05:25:10;;;;;;;26.33;15.00;;;;;;;;;;5022069;28;20089;-57
2024/03/10 05:27:37;;;;;;;26.55;14.35;;;;;;;;;;5010928;28;20049;-57
2024/03/10 05:30:02;;;;;;;26.38;15.48;;;;;;;;;;5007666;28;20474;-57
2024/03/10 05:32:27;;;;;;;27.48;15.10;;;;;;;;;;5007522;28;20041;-58
2024/03/10 05:34:56;;;;;;;28.97;14.47;;;;;;;;;;5006769;28;20658;-58
2024/03/10 05:37:22;;;;;;;26.15;15.20;;;;;;;;;;5013260;28;20037;-58
2024/03/10 05:39:47;;;;;;;26.17;14.70;;;;;;;;;;5007425;28;20018;-57
2024/03/10 05:42:12;;;;;;;24.38;13.57;;;;;;;;;;5008535;28;20390;-59
2024/03/10 05:44:37;;;;;;;24.70;14.67;;;;;;;;;;5020174;28;20014;-58
2024/03/10 05:47:04;;;;;;;28.50;15.23;;;;;;;;;;5032632;28;20029;-58
2024/03/10 05:49:29;;;;;;;26.30;14.73;;;;;;;;;;5041967;28;20112;-59
2024/03/10 05:51:54;;;;;;;24.97;13.83;;;;;;;;;;5021926;28;20444;-58
2024/03/10 05:54:21;;;;;;;25.20;14.23;;;;;;;;;;5017500;28;20088;-58
2024/03/10 05:56:46;;;;;;;;;;;;;;;;;;5008783;28;20056;-58
2024/03/10 05:59:11;;;;;;;25.40;14.25;;;;;;;;;;5012941;28;19949;-56
2024/03/10 06:01:36;;;;;;;23.88;13.60;;;;;;;;;;5011848;28;20101;-58
2024/03/10 06:04:01;;;;;;;25.67;14.40;;;;;;;;;;5017815;28;20029;-58
2024/03/10 06:06:28;;;;;;;25.13;14.23;;;;;;;;;;5011613;28;20053;-59
2024/03/10 06:08:54;;;;;;;24.88;13.77;;;;;;;;;;5013584;28;20033;-59
2024/03/10 06:11:19;;;;;;;25.25;14.68;;;;;;;;;;5014251;28;20457;-57
2024/03/10 06:13:44;;;;;;;24.70;13.27;;;;;;;;;;5021851;28;20029;-58
2024/03/10 06:16:10;;;;;;;27.73;15.00;;;;;;;;;;5009834;28;20061;-58
2024/03/10 06:26:47;;;;;;;25.60;13.75;;;;;;;;;;5007661;28;20102;-57
2024/03/10 06:29:13;;;;;;;24.02;13.38;;;;;;;;;;5002335;28;20112;-57
2024/03/10 06:31:38;;;;;;;24.00;14.10;;;;;;;;;;5011275;28;20482;-58
2024/03/10 06:34:05;;;;;;;24.30;13.23;;;;;;;;;;5011566;28;20010;-58
2024/03/10 06:36:30;;;;;;;24.92;13.57;;;;;;;;;;5007057;28;20175;-57
2024/03/10 06:38:56;;;;;;;23.90;13.27;;;;;;;;;;5016885;28;20517;-59
2024/03/10 06:41:22;;;;;;;23.98;13.13;;;;;;;;;;5022460;28;20034;-60
2024/03/10 06:43:49;;;;;;;24.60;13.70;;;;;;;;;;5014806;28;20153;-57
2024/03/10 06:46:14;;;;;;;22.27;12.88;;;;;;;;;;5014368;28;20029;-60
2024/03/10 06:48:39;;;;;;;22.67;12.80;;;;;;;;;;5014289;28;20018;-59
2024/03/10 06:51:06;;;;;;;20.83;12.27;;;;;;;;;;5013665;28;20122;-57
2024/03/10 06:53:32;;;;;;;21.83;12.88;;;;;;;;;;5012936;28;20422;-59
2024/03/10 06:55:58;;;;;;;21.88;11.82;;;;;;;;;;5012982;28;20022;-59
2024/03/10 06:58:23;;;;;;;22.27;12.48;;;;;;;;;;5014140;28;20044;-58
2024/03/10 07:00:48;;;;;;;23.17;12.87;;;;;;;;;;5011006;28;20072;-58
2024/03/10 07:03:14;;;;;;;21.07;12.70;;;;;;;;;;5017640;28;20482;-59
2024/03/10 07:05:41;;;;;;;21.90;11.88;;;;;;;;;;5014070;28;20021;-59
2024/03/10 07:08:09;;;;;;;20.23;11.73;;;;;;;;;;5014028;28;20022;-58
2024/03/10 07:10:41;;;;;;;19.75;12.20;;;;;;;;;;5014623;28;20116;-59
2024/03/10 07:13:08;;;;;;;20.15;12.20;;;;;;;;;;5010729;28;20021;-58
2024/03/10 07:15:33;;;;;;;21.48;12.77;;;;;;;;;;5013041;28;20044;-58
2024/03/10 07:17:58;;;;;;;20.60;11.80;;;;;;;;;;4994263;28;20030;-57
2024/03/10 07:20:24;;;;;;;19.73;10.93;;;;;;;;;;4995703;28;20545;-58
2024/03/10 07:22:50;;;;;;;18.52;10.43;;;;;;;;;;5014152;28;20480;-58
2024/03/10 07:25:15;;;;;;;19.30;11.63;;;;;;;;;;5013399;28;20022;-57
2024/03/10 07:27:43;;;;;;;19.03;10.43;;;;;;;;;;5013593;28;20468;-58
2024/03/10 07:30:09;;;;;;;19.83;11.40;;;;;;;;;;5013917;28;20033;-58
2024/03/10 07:32:34;;;;;;;18.80;11.05;;;;;;;;;;5013667;28;20033;-59
2024/03/10 07:35:00;;;;;;;19.83;11.52;;;;;;;;;;5010344;28;20034;-58
2024/03/10 07:37:28;;;;;;;18.13;10.80;;;;;;;;;;5007716;28;20077;-59
2024/03/10 07:39:56;;;;;;;18.45;11.20;;;;;;;;;;4993549;28;20483;-60
2024/03/10 07:42:21;;;;;;;17.90;10.32;;;;;;;;;;4994817;28;20478;-59
2024/03/10 07:44:46;;;;;;;20.02;11.20;;;;;;;;;;5012839;28;20108;-58
2024/03/10 07:47:12;;;;;;;20.57;11.30;;;;;;;;;;5013097;28;20478;-58
2024/03/10 07:49:37;;;;;;;18.30;10.85;;;;;;;;;;5013634;28;20105;-59
2024/03/10 07:52:05;;;;;;;19.37;11.47;;;;;;;;;;5014539;28;20116;-57
2024/03/10 07:54:30;;;;;;;19.75;11.20;;;;;;;;;;5010994;28;20028;-59
2024/03/10 07:56:55;;;;;;;19.47;11.27;;;;;;;;;;5013670;28;20022;-59
2024/03/10 07:59:21;;;;;;;16.70;10.50;;;;;;;;;;5014207;28;20359;-58
2024/03/10 08:01:49;;;;;;;16.70;10.30;;;;;;;;;;5013724;28;20122;-59
2024/03/10 08:04:14;;;;;;;18.08;11.00;;;;;;;;;;5019144;28;20030;-58
2024/03/10 08:06:39;;;;;;;16.73;10.60;;;;;;;;;;5016944;28;20532;-57
2024/03/10 08:09:04;;;;;;;18.83;11.07;;;;;;;;;;5015848;28;20125;-58
2024/03/10 08:11:29;;;;;;;16.08;10.35;;;;;;;;;;5017210;28;20029;-58
2024/03/10 08:13:56;;;;;;;17.00;9.37;;;;;;;;;;5021896;28;20026;-59
2024/03/10 08:16:21;;;;;;;17.00;10.10;;;;;;;;;;5027287;28;20030;-63
2024/03/10 08:18:46;;;;;;;18.38;10.65;;;;;;;;;;5024233;28;20030;-58
2024/03/10 08:21:11;;;;;;;16.73;9.85;;;;;;;;;;5023706;28;20496;-60
2024/03/10 08:23:37;;;;;;;17.42;9.20;;;;;;;;;;5022724;28;20045;-59
2024/03/10 08:26:02;;;;;;;15.93;9.77;;;;;;;;;;5022710;28;20030;-57
2024/03/10 08:28:27;;;;;;;15.93;9.23;;;;;;;;;;5031010;28;20032;-58
2024/03/10 08:30:53;;;;;;;16.40;9.93;;;;;;;;;;5016069;28;20061;-60
2024/03/10 08:33:18;;;;;;;15.82;9.30;;;;;;;;;;5025080;28;20499;-59
2024/03/10 08:35:44;;;;;;;15.82;9.57;;;;;;;;;;5030995;28;20077;-58
2024/03/10 08:38:09;;;;;;;17.27;10.10;;;;;;;;;;5031786;28;20021;-58
2024/03/10 08:40:35;;;;;;;17.50;10.40;;;;;;;;;;5031736;28;20018;-60
2024/03/10 08:43:00;;;;;;;16.08;9.95;;;;;;;;;;5025040;28;20010;-59
2024/03/10 08:45:28;;;;;;;15.53;9.57;;;;;;;;;;5014568;28;20022;-58
2024/03/10 08:47:53;;;;;;;15.75;9.98;;;;;;;;;;5013168;28;20874;-57
2024/03/10 08:50:18;;;;;;;16.30;8.97;;;;;;;;;;5012542;28;20053;-57
2024/03/10 08:52:44;;;;;;;15.13;9.23;;;;;;;;;;5018956;28;20398;-59
2024/03/10 08:55:13;;;;;;;14.97;9.60;;;;;;;;;;5011765;28;20498;-57
2024/03/10 08:57:39;;;;;;;15.27;8.82;;;;;;;;;;5012404;28;20018;-58
2024/03/10 09:00:06;;;;;;;15.40;9.25;;;;;;;;;;5010322;28;20037;-59
2024/03/10 09:02:31;;;;;;;16.75;10.43;;;;;;;;;;5012743;28;20033;-58
2024/03/10 09:04:56;;;;;;;15.13;8.82;;;;;;;;;;5010677;28;20386;-60
2024/03/10 09:07:22;;;;;;;15.43;9.93;;;;;;;;;;5012933;28;20022;-58
2024/03/10 09:09:49;;;;;;;15.07;9.63;;;;;;;;;;5011440;28;20014;-58
2024/03/10 09:12:14;;;;;;;15.30;9.73;;;;;;;;;;5020050;28;20048;-59
2024/03/10 09:14:39;;;;;;;16.55;9.68;;;;;;;;;;5026223;28;20026;-59
2024/03/10 09:17:04;;;;;;;14.95;9.77;;;;;;;;;;5027620;28;20030;-59
2024/03/10 09:19:30;;;;;;;16.43;9.83;;;;;;;;;;5026288;28;20435;-59
2024/03/10 09:21:55;;;;;;;15.68;9.40;;;;;;;;;;5012699;28;20013;-58
2024/03/10 09:24:20;;;;;;;15.88;9.27;;;;;;;;;;5014010;28;20056;-58
2024/03/10 09:26:45;;;;;;;14.65;8.75;;;;;;;;;;5011627;28;20022;-58
2024/03/10 09:29:14;;;;;;;17.07;9.40;;;;;;;;;;5019288;28;20045;-58
2024/03/10 09:31:40;;;;;;;15.32;9.25;;;;;;;;;;5015010;28;20057;-59
2024/03/10 09:34:06;;;;;;;15.00;9.23;;;;;;;;;;5007198;28;20061;-59
2024/03/10 09:36:31;;;;;;;13.23;7.93;;;;;;;;;;5009915;28;20074;-58
2024/03/10 09:38:56;;;;;;;15.67;9.20;;;;;;;;;;5003893;28;20018;-58
2024/03/10 09:41:22;;;;;;;14.77;8.27;;;;;;;;;;5015706;28;20034;-63
2024/03/10 09:43:49;;;;;;;13.43;8.40;;;;;;;;;;5028986;28;20041;-58
2024/03/10 09:46:16;;;;;;;13.13;8.23;;;;;;;;;;5028539;28;20030;-60
2024/03/10 09:48:45;;;;;;;;;;;;;;;;;;5025727;28;20032;-59
2024/03/10 09:51:13;;;;;;;14.63;8.40;;;;;;;;;;5030013;28;19989;-59
2024/03/10 09:53:40;;;;;;;14.45;8.40;;;;;;;;;;5028057;28;20022;-59
2024/03/10 09:56:07;;;;;;;12.45;8.13;;;;;;;;;;5030147;28;20048;-59
2024/03/10 09:58:53;;;;;;;14.20;8.10;;;;;;;;;;5030851;28;20021;-58
2024/03/10 10:01:24;;;;;;;13.43;7.60;;;;;;;;;;5019043;28;20032;-58
2024/03/10 10:03:49;;;;;;;13.48;8.27;;;;;;;;;;5023101;28;20037;-60
2024/03/10 10:06:16;;;;;;;12.83;8.17;;;;;;;;;;5023009;28;20479;-60
2024/03/10 10:08:42;;;;;;;15.35;8.48;;;;;;;;;;5023914;28;20026;-59
2024/03/10 10:11:08;;;;;;;13.32;8.10;;;;;;;;;;5025337;28;20020;-59
2024/03/10 10:13:33;;;;;;;13.68;8.32;;;;;;;;;;5025541;28;20025;-59
2024/03/10 10:15:59;;;;;;;13.63;8.90;;;;;;;;;;5025169;28;20022;-58
2024/03/10 10:18:27;;;;;;;14.57;8.75;;;;;;;;;;5024304;28;20052;-58
2024/03/10 10:20:53;;;;;;;13.82;8.65;;;;;;;;;;5021634;28;20030;-59
2024/03/10 10:23:24;;;;;;;13.88;8.40;;;;;;;;;;5024074;28;20104;-59
2024/03/10 10:25:53;;;;;;;14.20;8.23;;;;;;;;;;5022379;28;20052;-58
2024/03/10 10:28:18;;;;;;;13.27;8.15;;;;;;;;;;5022978;28;20026;-59
2024/03/10 10:30:44;;;;;;;14.93;8.60;;;;;;;;;;5028846;28;20022;-59
2024/03/10 10:33:14;;;;;;;13.48;8.60;;;;;;;;;;5023868;28;20050;-58
2024/03/10 10:35:39;;;;;;;13.30;7.70;;;;;;;;;;5022552;28;20025;-59
2024/03/10 10:38:11;;;;;;;15.20;8.25;;;;;;;;;;5026779;28;20018;-60
2024/03/10 10:40:41;;;;;;;13.85;8.32;;;;;;;;;;5022876;28;20030;-59
2024/03/10 10:43:06;;;;;;;12.02;7.85;;;;;;;;;;5019581;28;20024;-58
2024/03/10 10:45:35;;;;;;;11.52;7.38;;;;;;;;;;5019706;28;20097;-59
2024/03/10 10:48:03;;;;;;;12.98;7.70;;;;;;;;;;5017807;28;20025;-60
2024/03/10 10:50:34;;;;;;;14.45;7.85;;;;;;;;;;5017190;28;20074;-58
2024/03/10 10:52:59;;;;;;;13.13;7.80;;;;;;;;;;5016199;28;20121;-59
2024/03/10 10:55:25;;;;;;;13.10;7.25;;;;;;;;;;5018368;28;20025;-59
2024/03/10 10:57:56;;;;;;;12.07;7.75;;;;;;;;;;5018306;28;20040;-58
2024/03/10 11:00:26;;;;;;;11.73;7.53;;;;;;;;;;5017384;28;20397;-59
2024/03/10 11:03:04;;;;;;;13.35;6.95;;;;;;;;;;5019412;28;20386;-56
2024/03/10 11:05:30;;;;;;;11.50;7.70;;;;;;;;;;5019770;28;20084;-59
2024/03/10 11:07:55;;;;;;;14.05;8.32;;;;;;;;;;5016292;28;20029;-58
2024/03/10 11:10:40;;;;;;;11.38;7.55;;;;;;;;;;5017603;28;20014;-58
2024/03/10 11:13:08;;;;;;;12.25;7.28;;;;;;;;;;5014686;28;20099;-59
2024/03/10 11:15:34;;;;;;;12.27;7.82;;;;;;;;;;5020249;28;20085;-57
2024/03/10 11:18:19;;;;;;;12.00;7.85;;;;;;;;;;5014703;28;20112;-58
2024/03/10 11:20:44;;;;;;;12.38;7.65;;;;;;;;;;5013135;28;20489;-63
2024/03/10 11:23:10;;;;;;;11.73;8.10;;;;;;;;;;5015451;28;20052;-60
2024/03/10 11:25:35;;;;;;;12.60;7.93;;;;;;;;;;5014699;28;20032;-60
2024/03/10 11:28:02;;;;;;;12.68;8.13;;;;;;;;;;5014223;28;20075;-58
2024/03/10 11:30:40;;;;;;;13.02;8.10;;;;;;;;;;5023250;28;20085;-59
2024/03/10 11:33:11;;;;;;;12.73;8.45;;;;;;;;;;5018371;28;20029;-59
2024/03/10 11:35:37;;;;;;;12.73;8.60;;;;;;;;;;5006675;28;20041;-60
2024/03/10 11:38:04;;;;;;;14.30;8.82;;;;;;;;;;5000954;28;20026;-59
2024/03/10 11:40:30;;;;;;;12.85;8.57;;;;;;;;;;5007920;28;20026;-59
2024/03/10 11:42:58;;;;;;;13.15;8.15;;;;;;;;;;5026115;28;20018;-57
2024/03/10 11:45:25;;;;;;;12.00;7.97;;;;;;;;;;5024307;28;20085;-59
2024/03/10 11:47:50;;;;;;;12.77;8.13;;;;;;;;;;5025490;28;20029;-59
2024/03/10 11:50:15;;;;;;;12.30;8.53;;;;;;;;;;5022877;28;20026;-59
2024/03/10 11:52:40;;;;;;;15.02;8.90;;;;;;;;;;5019466;28;20420;-60
2024/03/10 11:55:11;;;;;;;12.17;8.67;;;;;;;;;;5037834;28;20031;-58
2024/03/10 11:57:36;;;;;;;12.30;7.70;;;;;;;;;;5016094;28;20500;-58
2024/03/10 12:00:05;;;;;;;12.23;7.93;;;;;;;;;;5013756;28;20458;-59
2024/03/10 12:02:30;;;;;;;13.25;7.40;;;;;;;;;;5013043;28;20621;-59
2024/03/10 12:04:56;;;;;;;12.83;8.40;;;;;;;;;;5010579;28;20024;-59
2024/03/10 12:07:25;;;;;;;13.75;8.07;;;;;;;;;;5011182;28;20465;-60
2024/03/10 12:09:54;;;;;;;12.20;7.80;;;;;;;;;;5011746;28;20120;-59
2024/03/10 12:12:19;;;;;;;12.85;8.48;;;;;;;;;;5012975;28;20032;-57
2024/03/10 12:14:44;;;;;;;11.27;7.43;;;;;;;;;;5012186;28;20029;-58
2024/03/10 12:17:15;;;;;;;12.65;7.85;;;;;;;;;;5012940;28;20505;-59
2024/03/10 12:19:41;;;;;;;13.07;8.55;;;;;;;;;;5014482;28;20043;-58
2024/03/10 12:22:07;;;;;;;13.30;8.35;;;;;;;;;;5013961;28;20564;-59
2024/03/10 12:24:32;;;;;;;12.50;8.40;;;;;;;;;;5012314;28;20025;-60
2024/03/10 12:27:03;;;;;;;13.03;8.07;;;;;;;;;;5012545;28;20493;-58
2024/03/10 12:29:28;;;;;;;13.27;8.55;;;;;;;;;;5012407;28;20785;-59
2024/03/10 12:31:54;;;;;;;14.27;8.37;;;;;;;;;;5012014;28;20036;-59
2024/03/10 12:34:19;;;;;;;13.55;7.88;;;;;;;;;;5012190;28;20034;-59
2024/03/10 12:36:44;;;;;;;14.07;8.63;;;;;;;;;;5008749;28;20101;-58
2024/03/10 12:39:11;;;;;;;14.18;8.77;;;;;;;;;;5010546;28;20100;-59
2024/03/10 12:41:36;;;;;;;14.95;8.20;;;;;;;;;;5001461;28;20054;-59
2024/03/10 12:44:03;;;;;;;13.63;8.93;;;;;;;;;;5000945;28;20025;-58
2024/03/10 12:46:28;;;;;;;12.82;8.57;;;;;;;;;;5011581;28;20094;-58
2024/03/10 12:48:53;;;;;;;13.75;8.55;;;;;;;;;;5009872;28;20109;-59
2024/03/10 12:51:19;;;;;;;12.17;7.90;;;;;;;;;;5009987;28;20049;-59
2024/03/10 12:53:45;;;;;;;13.35;8.35;;;;;;;;;;5014526;28;20030;-58
2024/03/10 12:56:12;;;;;;;12.90;7.70;;;;;;;;;;5009734;28;20021;-58
2024/03/10 12:58:38;;;;;;;13.30;7.80;;;;;;;;;;5013034;28;20025;-57
2024/03/10 13:01:04;;;;;;;14.18;8.25;;;;;;;;;;5014476;28;20042;-60
2024/03/10 13:03:29;;;;;;;14.43;8.35;;;;;;;;;;5015604;28;20093;-58
2024/03/10 13:05:55;;;;;;;13.05;7.82;;;;;;;;;;5012020;28;20037;-59
2024/03/10 13:08:21;;;;;;;12.80;8.25;;;;;;;;;;5007108;28;20548;-60
2024/03/10 13:10:46;;;;;;;14.27;8.70;;;;;;;;;;5005185;28;20033;-60
2024/03/10 13:13:12;;;;;;;10.87;7.70;;;;;;;;;;4988894;28;20030;-58
2024/03/10 13:15:37;;;;;;;11.82;8.50;;;;;;;;;;4993596;28;20025;-58
2024/03/10 13:18:06;;;;;;;11.52;8.50;;;;;;;;;;5010590;28;20029;-59
2024/03/10 13:20:31;;;;;;;13.85;8.38;;;;;;;;;;5008748;28;20025;-58
2024/03/10 13:22:56;;;;;;;12.73;8.32;;;;;;;;;;5008792;28;20037;-59
2024/03/10 13:25:21;;;;;;;13.23;7.30;;;;;;;;;;5007706;28;20032;-58
2024/03/10 13:27:47;;;;;;;15.73;8.37;;;;;;;;;;5006492;28;20041;-58
2024/03/10 13:30:13;;;;;;;13.52;8.02;;;;;;;;;;5004960;28;20056;-59
2024/03/10 13:32:40;;;;;;;12.85;8.05;;;;;;;;;;5006527;28;20096;-59
2024/03/10 13:35:08;;;;;;;15.27;8.10;;;;;;;;;;5008206;28;20026;-60
2024/03/10 13:37:34;;;;;;;12.40;7.22;;;;;;;;;;5008409;28;20029;-58
2024/03/10 13:40:10;;;;;;;13.40;8.15;;;;;;;;;;5007288;28;20018;-57
2024/03/10 13:42:37;;;;;;;16.30;8.32;;;;;;;;;;5009643;28;20030;-58
2024/03/10 13:45:04;;;;;;;12.48;8.00;;;;;;;;;;5007728;28;20109;-58
2024/03/10 13:47:29;;;;;;;12.20;7.47;;;;;;;;;;5009384;28;20029;-60
2024/03/10 13:49:55;;;;;;;15.15;7.90;;;;;;;;;;5006354;28;20137;-59
2024/03/10 13:52:22;;;;;;;11.68;8.13;;;;;;;;;;5010633;28;20033;-58
2024/03/10 13:54:50;;;;;;;13.63;7.75;;;;;;;;;;5010074;28;20029;-59
2024/03/10 13:57:19;;;;;;;13.82;8.30;;;;;;;;;;5010720;28;20026;-59
2024/03/10 13:59:46;;;;;;;12.68;7.60;;;;;;;;;;5008592;28;20033;-59
2024/03/10 14:02:11;;;;;;;12.40;7.68;;;;;;;;;;5013825;28;20022;-57
2024/03/10 14:04:37;;;;;;;12.02;7.72;;;;;;;;;;5016356;28;20033;-58
2024/03/10 14:07:03;;;;;;;11.65;7.53;;;;;;;;;;5017132;28;20117;-58
2024/03/10 14:09:29;;;;;;;12.57;7.50;;;;;;;;;;5016148;28;20520;-59
2024/03/10 14:11:54;;;;;;;11.82;7.80;;;;;;;;;;5014593;28;20030;-58
2024/03/10 14:14:19;;;;;;;14.52;7.75;;;;;;;;;;5016869;28;20528;-58
2024/03/10 14:16:45;;;;;;;10.65;6.95;;;;;;;;;;5013377;28;20100;-58
2024/03/10 14:19:11;;;;;;;11.40;6.70;;;;;;;;;;5010883;28;20022;-57
2024/03/10 14:21:38;;;;;;;12.98;7.18;;;;;;;;;;5004606;28;20462;-57
2024/03/10 14:24:03;;;;;;;10.43;6.80;;;;;;;;;;5008767;28;20556;-60
2024/03/10 14:26:28;;;;;;;14.07;7.13;;;;;;;;;;5012705;28;20026;-57
2024/03/10 14:28:55;;;;;;;10.38;6.72;;;;;;;;;;5012046;28;20045;-58
2024/03/10 14:31:20;;;;;;;11.38;6.78;;;;;;;;;;5008293;28;20464;-58
2024/03/10 14:33:45;;;;;;;12.45;6.97;;;;;;;;;;5012261;28;20101;-59
2024/03/10 14:36:10;;;;;;;11.00;6.73;;;;;;;;;;5014173;28;20033;-58
2024/03/10 14:38:36;;;;;;;11.45;6.47;;;;;;;;;;5031558;28;20025;-59